Terminal Aerodrome Forecast
Issued by NWS Detroit/Pontiac, MI

Home | Current Version | Previous Version | Text Only | Print | Product List | Glossary On
Versions: 1 2 3 4 5 6 7 8 9 10 11 12 13 14 15 16 17 18 19 20 21 22 23
000
FTUS43 KDTX 272320
TAFDTW
TAF
KDTW 272320Z 2800/2906 36008KT P6SM BKN050
     FM280200 03005KT P6SM SCT050
     FM281000 34008KT P6SM BKN045
     FM281700 36007KT P6SM SCT045
     FM290000 03005KT P6SM BKN050=

USA.gov is the U.S. government's official web portal to all federal, state and local government web resources and services.